createdAt,value
2022-10-09T00:01:10.502Z,101735.69
2022-10-09T00:04:17.268Z,101743.50
2022-10-09T00:07:20.509Z,101745.25
2022-10-09T00:10:24.624Z,101747.78
2022-10-09T00:13:31.607Z,101755.28
2022-10-09T00:16:35.028Z,101750.94
2022-10-09T00:19:38.381Z,101757.94
2022-10-09T00:22:47.126Z,101758.88
2022-10-09T00:25:56.100Z,101759.97
2022-10-09T00:29:00.759Z,101767.69
2022-10-09T00:32:03.979Z,101751.53
2022-10-09T00:35:13.393Z,101767.16
2022-10-09T00:38:17.362Z,101760.41
2022-10-09T00:41:35.696Z,101768.56
2022-10-09T00:44:57.777Z,101758.03
2022-10-09T00:48:04.675Z,101761.38
2022-10-09T00:51:08.918Z,101768.34
2022-10-09T00:54:16.727Z,101774.63
2022-10-09T00:57:20.642Z,101771.31
2022-10-09T01:00:26.772Z,101777.75
2022-10-09T01:03:30.003Z,101770.69
2022-10-09T01:06:50.536Z,101772.66
2022-10-09T01:10:00.700Z,101764.88
2022-10-09T01:13:11.322Z,101767.59
2022-10-09T01:16:26.785Z,101774.50
2022-10-09T01:20:02.347Z,101780.34
2022-10-09T01:23:27.971Z,101786.69
2022-10-09T01:26:56.606Z,101783.94
2022-10-09T01:30:05.407Z,101775.22
2022-10-09T01:33:12.049Z,101771.63
2022-10-09T01:36:17.681Z,101781.28
2022-10-09T01:39:35.121Z,101784.59
2022-10-09T01:43:09.282Z,101791.38
2022-10-09T01:46:23.111Z,101797.41
2022-10-09T01:49:42.486Z,101794.13
2022-10-09T01:52:52.061Z,101803.13
2022-10-09T01:56:05.164Z,101800.50
2022-10-09T01:59:16.003Z,101798.75
2022-10-09T02:02:20.921Z,101798.13
2022-10-09T02:05:29.669Z,101802.16
2022-10-09T02:08:36.249Z,101801.66
2022-10-09T02:11:42.964Z,101799.13
2022-10-09T02:14:50.416Z,101796.59
2022-10-09T02:18:05.856Z,101800.69
2022-10-09T02:21:16.345Z,101798.72
2022-10-09T02:24:23.230Z,101806.44
2022-10-09T02:27:29.891Z,101810.88
2022-10-09T02:30:42.926Z,101815.28
2022-10-09T02:33:45.867Z,101819.84
2022-10-09T02:36:50.383Z,101822.50
2022-10-09T02:39:53.740Z,101821.66
2022-10-09T02:42:56.670Z,101820.03
2022-10-09T02:46:00.938Z,101829.75
2022-10-09T02:49:04.153Z,101830.16
2022-10-09T02:52:07.820Z,101822.34
2022-10-09T02:55:11.230Z,101824.47
2022-10-09T02:58:19.867Z,101814.13
2022-10-09T03:01:24.615Z,101810.47
2022-10-09T03:04:27.558Z,101810.34
2022-10-09T03:07:30.499Z,101813.72
2022-10-09T03:10:33.707Z,101806.19
2022-10-09T03:13:36.880Z,101812.56
2022-10-09T03:16:41.448Z,101814.13
2022-10-09T03:19:44.407Z,101807.25
2022-10-09T03:22:47.708Z,101814.13
2022-10-09T03:25:57.739Z,101815.22
2022-10-09T03:29:00.718Z,101818.94
2022-10-09T03:32:05.103Z,101816.34
2022-10-09T03:35:09.209Z,101826.28
2022-10-09T03:38:12.354Z,101823.75
2022-10-09T03:41:15.944Z,101822.53
2022-10-09T03:44:18.997Z,101836.84
2022-10-09T03:47:23.241Z,101827.34
2022-10-09T03:50:26.468Z,101848.75
2022-10-09T03:53:29.435Z,101851.06
2022-10-09T03:56:32.400Z,101852.97
2022-10-09T03:59:35.330Z,101854.81
2022-10-09T04:02:39.601Z,101856.97
2022-10-09T04:05:43.146Z,101859.94
2022-10-09T04:08:46.054Z,101859.19
2022-10-09T04:11:49.303Z,101856.97
2022-10-09T04:14:52.549Z,101863.91
2022-10-09T04:17:57.063Z,101858.94
2022-10-09T04:21:00.197Z,101863.44
2022-10-09T04:24:03.722Z,101866.28
2022-10-09T04:27:06.722Z,101865.56
2022-10-09T04:30:11.124Z,101862.22
2022-10-09T04:33:15.536Z,101863.38
2022-10-09T04:36:18.891Z,101861.69
2022-10-09T04:39:22.032Z,101869.66
2022-10-09T04:42:24.980Z,101865.59
2022-10-09T04:45:27.984Z,101863.16
2022-10-09T04:48:32.317Z,101859.75
2022-10-09T04:51:35.255Z,101861.63
2022-10-09T04:54:38.171Z,101869.44
2022-10-09T04:57:41.321Z,101865.28
2022-10-09T05:00:45.901Z,101874.00
2022-10-09T05:03:50.766Z,101880.34
2022-10-09T05:06:53.682Z,101882.13
2022-10-09T05:09:57.756Z,101881.44
2022-10-09T05:13:01.055Z,101889.19
2022-10-09T05:16:05.138Z,101890.13
2022-10-09T05:19:09.771Z,101881.50
2022-10-09T05:22:12.882Z,101882.41
2022-10-09T05:25:16.439Z,101891.09
2022-10-09T05:28:19.435Z,101897.31
2022-10-09T05:31:25.181Z,101895.50
2022-10-09T05:34:29.638Z,101903.47
2022-10-09T05:37:32.678Z,101905.25
2022-10-09T05:40:35.584Z,101906.00
2022-10-09T05:43:41.688Z,101903.38
2022-10-09T05:46:44.643Z,101910.34
2022-10-09T05:49:49.018Z,101913.72
2022-10-09T05:52:52.026Z,101913.84
2022-10-09T05:55:55.026Z,101917.22
2022-10-09T05:59:00.587Z,101936.00
2022-10-09T06:02:03.706Z,101923.84
2022-10-09T06:05:09.251Z,101927.25
2022-10-09T06:08:12.156Z,101932.28
2022-10-09T06:11:17.498Z,101920.66
2022-10-09T06:14:21.962Z,101921.13
2022-10-09T06:17:25.246Z,101921.81
2022-10-09T06:20:29.563Z,101927.53
2022-10-09T06:23:33.031Z,101924.06
2022-10-09T06:26:36.186Z,101920.13
2022-10-09T06:29:39.349Z,101920.13
2022-10-09T06:32:42.468Z,101922.34
2022-10-09T06:35:46.783Z,101920.53
2022-10-09T06:38:50.341Z,101923.69
2022-10-09T06:41:53.473Z,101929.34
2022-10-09T06:45:06.938Z,101925.50
2022-10-09T06:48:09.920Z,101928.00
2022-10-09T06:51:16.842Z,101932.19
2022-10-09T06:54:19.779Z,101929.28
2022-10-09T06:57:22.756Z,101936.88
2022-10-09T07:00:26.233Z,101936.28
2022-10-09T07:03:29.306Z,101941.59
2022-10-09T07:06:36.724Z,101942.91
2022-10-09T07:09:39.819Z,101949.47
2022-10-09T07:12:42.748Z,101936.88
2022-10-09T07:15:46.703Z,101939.19
2022-10-09T07:18:50.418Z,101944.97
2022-10-09T07:21:54.714Z,101944.84
2022-10-09T07:24:57.671Z,101947.72
2022-10-09T07:28:00.588Z,101947.91
2022-10-09T07:31:04.434Z,101951.16
2022-10-09T07:34:08.092Z,101942.03
2022-10-09T07:37:12.430Z,101952.78
2022-10-09T07:40:15.443Z,101957.56
2022-10-09T07:43:18.443Z,101959.00
2022-10-09T07:46:23.804Z,101966.66
2022-10-09T07:49:26.925Z,101969.69
2022-10-09T07:52:31.297Z,101975.97
2022-10-09T07:55:34.227Z,101983.91
2022-10-09T07:58:37.186Z,101994.31
2022-10-09T08:01:40.753Z,101993.53
2022-10-09T08:04:43.717Z,102008.25
2022-10-09T08:07:48.235Z,102014.88
2022-10-09T08:10:51.157Z,102022.88
2022-10-09T08:13:55.081Z,102031.88
2022-10-09T08:16:57.995Z,102034.56
2022-10-09T08:20:00.936Z,102036.47
2022-10-09T08:23:05.824Z,102045.94
2022-10-09T08:26:15.128Z,102056.38
2022-10-09T08:29:20.863Z,102060.22
2022-10-09T08:32:23.778Z,102069.84
2022-10-09T08:35:27.511Z,102077.31
2022-10-09T08:38:46.860Z,102083.28
2022-10-09T08:41:53.923Z,102092.34
2022-10-09T08:44:57.666Z,102094.56
2022-10-09T08:48:05.921Z,102094.53
2022-10-09T08:51:21.622Z,102105.94
2022-10-09T08:54:34.880Z,102112.34
2022-10-09T08:57:37.821Z,102114.44
2022-10-09T09:00:46.958Z,102122.75
2022-10-09T09:04:13.663Z,102114.28
2022-10-09T09:07:27.784Z,102133.81
2022-10-09T09:10:41.586Z,102126.09
2022-10-09T09:13:57.856Z,102122.56
2022-10-09T09:17:10.361Z,102132.25
2022-10-09T09:20:22.453Z,102125.56
2022-10-09T09:23:30.520Z,102133.69
2022-10-09T09:26:35.185Z,102149.88
2022-10-09T09:29:43.661Z,102150.19
2022-10-09T09:32:56.457Z,102148.38
2022-10-09T09:36:08.744Z,102161.91
2022-10-09T09:40:07.761Z,102173.59
2022-10-09T09:42:37.254Z,102176.88
2022-10-09T09:45:40.180Z,102176.69
2022-10-09T09:48:45.861Z,102188.53
2022-10-09T09:51:50.335Z,102193.38
2022-10-09T09:54:53.484Z,102187.28
2022-10-09T09:58:04.597Z,102188.91
2022-10-09T10:01:08.960Z,102187.47
2022-10-09T10:04:22.214Z,102190.91
2022-10-09T10:07:30.848Z,102190.84
2022-10-09T10:10:33.784Z,102196.94
2022-10-09T10:13:49.004Z,102187.78
2022-10-09T10:16:55.160Z,102185.53
2022-10-09T10:19:58.170Z,102195.22
2022-10-09T10:23:02.240Z,102188.22
2022-10-09T10:26:13.389Z,102185.16
2022-10-09T10:29:22.669Z,102188.81
2022-10-09T10:32:32.436Z,102191.66
2022-10-09T10:35:39.570Z,102186.69
2022-10-09T10:38:52.334Z,102196.16
2022-10-09T10:41:58.406Z,102193.56
2022-10-09T10:45:10.622Z,102194.34
2022-10-09T10:48:19.145Z,102185.06
2022-10-09T10:51:48.807Z,102184.09
2022-10-09T10:54:58.911Z,102181.75
2022-10-09T10:58:16.346Z,102180.44
2022-10-09T11:01:34.369Z,102180.81
2022-10-09T11:04:47.641Z,102180.34
2022-10-09T11:08:03.549Z,102176.31
2022-10-09T11:11:13.462Z,102171.81
2022-10-09T11:14:32.182Z,102171.00
2022-10-09T11:17:45.760Z,102174.63
2022-10-09T11:21:18.957Z,102172.00
2022-10-09T11:24:51.452Z,102169.34
2022-10-09T11:27:59.977Z,102168.06
2022-10-09T11:31:12.169Z,102155.69
2022-10-09T11:34:23.160Z,102156.28
2022-10-09T11:37:31.197Z,102154.81
2022-10-09T11:40:37.952Z,102153.25
2022-10-09T11:44:01.512Z,102147.47
2022-10-09T11:47:16.470Z,102139.44
2022-10-09T11:50:37.799Z,102132.59
2022-10-09T11:53:40.943Z,102129.69
2022-10-09T11:56:58.031Z,102127.13
2022-10-09T12:00:09.967Z,102130.38
2022-10-09T12:03:33.255Z,102123.66
2022-10-09T12:06:50.359Z,102128.47
2022-10-09T12:10:01.759Z,102118.16
2022-10-09T12:13:11.189Z,102110.72
2022-10-09T12:16:41.066Z,102111.03
2022-10-09T12:19:44.901Z,102117.28
2022-10-09T12:23:21.351Z,102123.00
2022-10-09T12:26:21.816Z,102108.84
2022-10-09T12:29:29.908Z,102110.34
2022-10-09T12:32:38.439Z,102105.25
2022-10-09T12:35:45.901Z,102094.91
2022-10-09T12:38:50.435Z,102083.31
2022-10-09T12:41:59.883Z,102086.38
2022-10-09T12:45:03.274Z,102089.91
2022-10-09T12:48:12.978Z,102084.06
2022-10-09T12:51:17.845Z,102081.59
2022-10-09T12:54:24.931Z,102075.59
2022-10-09T12:57:31.233Z,102073.84
2022-10-09T13:00:35.612Z,102073.91
2022-10-09T13:03:41.431Z,102070.06
2022-10-09T13:06:47.491Z,102072.09
2022-10-09T13:10:01.347Z,102068.69
2022-10-09T13:13:04.364Z,102063.53
2022-10-09T13:16:10.876Z,102066.31
2022-10-09T13:19:25.949Z,102063.75
2022-10-09T13:22:33.712Z,102052.28
2022-10-09T13:25:49.396Z,102042.28
2022-10-09T13:28:52.716Z,102059.44
2022-10-09T13:31:55.784Z,102052.88
2022-10-09T13:34:59.131Z,102056.25
2022-10-09T13:38:03.072Z,102047.97
2022-10-09T13:41:09.924Z,102050.53
2022-10-09T13:44:13.005Z,102052.94
2022-10-09T13:47:18.635Z,102043.94
2022-10-09T13:50:25.456Z,102046.84
2022-10-09T13:53:28.641Z,102030.91
2022-10-09T13:56:32.950Z,102043.34
2022-10-09T13:59:36.956Z,102040.75
2022-10-09T14:02:39.869Z,102035.59
2022-10-09T14:05:43.103Z,102033.81
2022-10-09T14:08:46.100Z,102035.28
2022-10-09T14:11:50.371Z,102018.91
2022-10-09T14:14:54.276Z,102022.94
2022-10-09T14:17:57.392Z,102017.91
2022-10-09T14:21:00.369Z,102018.53
2022-10-09T14:24:04.535Z,102013.78
2022-10-09T14:27:08.941Z,102003.66
2022-10-09T14:30:13.707Z,102002.09
2022-10-09T14:33:16.760Z,102002.34
2022-10-09T14:36:20.863Z,101997.34
2022-10-09T14:39:24.264Z,102001.56
2022-10-09T14:42:28.508Z,101992.75
2022-10-09T14:45:33.030Z,101995.28
2022-10-09T14:48:36.819Z,101992.00
2022-10-09T14:51:41.250Z,101987.63
2022-10-09T14:54:44.161Z,101982.66
2022-10-09T14:57:48.510Z,101985.91
2022-10-09T15:00:51.456Z,101982.44
2022-10-09T15:03:54.587Z,101981.81
2022-10-09T15:06:57.617Z,101985.28
2022-10-09T15:10:00.580Z,101981.84
2022-10-09T15:13:05.172Z,101970.56
2022-10-09T15:16:10.510Z,101970.69
2022-10-09T15:19:13.444Z,101976.13
2022-10-09T15:22:16.351Z,101971.19
2022-10-09T15:25:19.318Z,101970.09
2022-10-09T15:28:24.016Z,101971.34
2022-10-09T15:31:29.847Z,101961.38
2022-10-09T15:34:33.545Z,101957.09
2022-10-09T15:37:36.607Z,101958.91
2022-10-09T15:40:45.715Z,101946.56
2022-10-09T15:43:50.210Z,101947.06
2022-10-09T15:46:53.178Z,101948.78
2022-10-09T15:49:56.110Z,101943.66
2022-10-09T15:53:00.297Z,101946.81
2022-10-09T15:56:06.562Z,101951.31
2022-10-09T15:59:13.059Z,101949.66
2022-10-09T16:02:16.062Z,101951.19
2022-10-09T16:05:19.058Z,101957.38
2022-10-09T16:08:22.018Z,101943.00
2022-10-09T16:11:26.529Z,101952.00
2022-10-09T16:14:31.531Z,101937.81
2022-10-09T16:17:34.521Z,101938.41
2022-10-09T16:20:38.802Z,101935.38
2022-10-09T16:23:42.541Z,101944.03
2022-10-09T16:26:45.860Z,101933.84
2022-10-09T16:29:50.184Z,101934.38
2022-10-09T16:32:53.666Z,101923.56
2022-10-09T16:36:08.339Z,101925.84
2022-10-09T16:39:11.428Z,101931.25
2022-10-09T16:42:14.582Z,101920.03
2022-10-09T16:45:19.033Z,101915.19
2022-10-09T16:48:21.991Z,101912.00
2022-10-09T16:51:28.738Z,101908.69
2022-10-09T16:54:31.694Z,101907.09
2022-10-09T16:57:34.722Z,101898.34
2022-10-09T17:00:39.053Z,101898.97
2022-10-09T17:03:42.476Z,101897.03
2022-10-09T17:06:46.463Z,101902.06
2022-10-09T17:09:49.453Z,101902.22
2022-10-09T17:12:52.375Z,101901.63
2022-10-09T17:15:56.621Z,101898.81
2022-10-09T17:19:00.777Z,101888.56
2022-10-09T17:22:04.201Z,101888.22
2022-10-09T17:25:08.047Z,101902.56
2022-10-09T17:28:11.008Z,101886.69
2022-10-09T17:31:18.196Z,101887.75
2022-10-09T17:34:21.253Z,101884.81
2022-10-09T17:37:24.191Z,101880.13
2022-10-09T17:40:27.158Z,101876.63
2022-10-09T17:43:30.128Z,101873.56
2022-10-09T17:46:34.455Z,101878.22
2022-10-09T17:49:37.793Z,101881.03
2022-10-09T17:52:40.841Z,101869.84
2022-10-09T17:55:43.968Z,101873.91
2022-10-09T17:58:52.353Z,101862.03
2022-10-09T18:01:56.910Z,101860.09
2022-10-09T18:05:00.018Z,101852.34
2022-10-09T18:08:03.048Z,101858.59
2022-10-09T18:11:09.817Z,101864.66
2022-10-09T18:14:13.312Z,101857.66
2022-10-09T18:17:17.967Z,101858.75
2022-10-09T18:20:24.766Z,101856.41
2022-10-09T18:23:34.040Z,101850.50
2022-10-09T18:26:37.342Z,101852.19
2022-10-09T18:29:40.422Z,101859.19
2022-10-09T18:32:44.690Z,101853.03
2022-10-09T18:35:47.670Z,101841.00
2022-10-09T18:38:53.552Z,101843.78
2022-10-09T18:41:58.193Z,101846.81
2022-10-09T18:45:01.542Z,101848.97
2022-10-09T18:48:07.786Z,101844.41
2022-10-09T18:51:16.463Z,101832.78
2022-10-09T18:54:23.210Z,101831.31
2022-10-09T18:57:27.488Z,101828.84
2022-10-09T19:00:31.398Z,101826.72
2022-10-09T19:03:36.582Z,101833.09
2022-10-09T19:06:39.915Z,101825.28
2022-10-09T19:09:43.367Z,101830.06
2022-10-09T19:12:46.424Z,101823.41
2022-10-09T19:15:53.312Z,101819.13
2022-10-09T19:18:58.207Z,101813.34
2022-10-09T19:22:01.392Z,101814.69
2022-10-09T19:25:05.621Z,101809.00
2022-10-09T19:28:08.714Z,101808.13
2022-10-09T19:31:12.867Z,101808.25
2022-10-09T19:34:19.374Z,101803.19
2022-10-09T19:37:26.047Z,101797.53
2022-10-09T19:40:31.968Z,101801.97
2022-10-09T19:43:35.561Z,101797.84
2022-10-09T19:46:40.130Z,101787.34
2022-10-09T19:49:44.524Z,101783.16
2022-10-09T19:52:47.755Z,101778.84
2022-10-09T19:55:51.073Z,101785.13
2022-10-09T19:58:56.009Z,101786.94
2022-10-09T20:01:58.960Z,101780.56
2022-10-09T20:05:03.242Z,101775.34
2022-10-09T20:08:06.396Z,101768.44
2022-10-09T20:11:11.400Z,101767.59
2022-10-09T20:14:14.651Z,101769.53
2022-10-09T20:17:18.132Z,101767.06
2022-10-09T20:20:22.435Z,101763.63
2022-10-09T20:23:26.191Z,101765.38
2022-10-09T20:26:31.356Z,101763.75
2022-10-09T20:29:34.298Z,101767.50
2022-10-09T20:32:37.331Z,101769.50
2022-10-09T20:35:46.109Z,101760.00
2022-10-09T20:38:49.137Z,101766.28
2022-10-09T20:41:52.134Z,101765.06
2022-10-09T20:44:55.462Z,101759.25
2022-10-09T20:47:58.480Z,101755.09
2022-10-09T20:51:03.088Z,101757.78
2022-10-09T20:54:08.550Z,101755.22
2022-10-09T20:57:11.737Z,101753.72
2022-10-09T21:00:15.272Z,101752.31
2022-10-09T21:03:18.260Z,101749.94
2022-10-09T21:06:24.099Z,101742.06
2022-10-09T21:09:33.130Z,101736.25
2022-10-09T21:12:36.631Z,101736.38
2022-10-09T21:15:43.734Z,101734.00
2022-10-09T21:18:47.823Z,101733.16
2022-10-09T21:21:52.104Z,101737.72
2022-10-09T21:24:55.226Z,101724.72
2022-10-09T21:27:58.153Z,101719.78
2022-10-09T21:31:01.174Z,101713.88
2022-10-09T21:34:04.247Z,101712.19
2022-10-09T21:37:26.298Z,101719.50
2022-10-09T21:40:29.587Z,101700.41
2022-10-09T21:43:32.917Z,101695.47
2022-10-09T21:46:37.588Z,101705.97
2022-10-09T21:49:41.747Z,101701.13
2022-10-09T21:52:50.706Z,101697.91
2022-10-09T21:55:59.663Z,101704.91
2022-10-09T21:59:03.255Z,101698.19
2022-10-09T22:02:07.894Z,101694.78
2022-10-09T22:05:14.379Z,101696.63
2022-10-09T22:08:21.290Z,101693.28
2022-10-09T22:11:26.504Z,101686.38
2022-10-09T22:14:32.710Z,101684.69
2022-10-09T22:17:36.350Z,101683.09
2022-10-09T22:20:41.861Z,101681.47
2022-10-09T22:23:58.237Z,101676.44
2022-10-09T22:27:01.418Z,101674.88
2022-10-09T22:30:07.536Z,101668.13
2022-10-09T22:33:10.455Z,101670.50
2022-10-09T22:36:16.429Z,101656.72
2022-10-09T22:39:20.754Z,101653.09
2022-10-09T22:42:30.648Z,101649.75
2022-10-09T22:45:38.508Z,101639.34
2022-10-09T22:48:42.336Z,101642.63
2022-10-09T22:51:46.152Z,101635.84
2022-10-09T22:54:50.496Z,101632.53
2022-10-09T22:57:53.461Z,101625.88
2022-10-09T23:00:57.062Z,101617.03
2022-10-09T23:04:01.104Z,101620.56
2022-10-09T23:07:04.405Z,101618.16
2022-10-09T23:10:10.067Z,101612.13
2022-10-09T23:13:13.298Z,101606.16
2022-10-09T23:16:16.838Z,101601.69
2022-10-09T23:19:20.067Z,101597.34
2022-10-09T23:22:23.038Z,101596.63
2022-10-09T23:25:27.308Z,101594.91
2022-10-09T23:28:30.498Z,101601.69
2022-10-09T23:31:34.686Z,101602.53
2022-10-09T23:34:37.704Z,101597.53
2022-10-09T23:37:40.660Z,101600.09
2022-10-09T23:40:44.951Z,101591.38
2022-10-09T23:43:49.579Z,101595.94
2022-10-09T23:46:52.515Z,101600.34
2022-10-09T23:49:56.168Z,101597.81
2022-10-09T23:52:59.392Z,101593.63
2022-10-09T23:56:08.031Z,101588.72
2022-10-09T23:59:12.526Z,101590.66
